Time;durP1;ratioP1;P1;durP2;ratioP2;P2;SDS_P1;SDS_P2;PMS_P1;PMS_P2;Temp;Humidity;BMP_temperature;BMP_pressure;BME280_temperature;BME280_humidity;BME280_pressure;Samples;Min_cycle;Max_cycle;Signal;HPM_P1;HPM_P2
2023/10/16 00:00:42;;;;;;;1023.93;929.93;;;3.10;99.90;;;;;;5095485;28;20457;-73
2023/10/16 00:03:09;;;;;;;1028.60;930.37;;;3.20;99.90;;;;;;5095062;28;21024;-73
2023/10/16 00:05:44;;;;;;;1018.73;922.03;;;3.40;99.90;;;;;;5095191;28;20484;-73
2023/10/16 00:08:12;;;;;;;1022.37;924.50;;;3.40;99.90;;;;;;5095145;28;21024;-74
2023/10/16 00:10:40;;;;;;;1029.17;931.80;;;3.40;99.90;;;;;;5094841;28;20446;-73
2023/10/16 00:13:11;;;;;;;1027.10;927.20;;;3.40;99.90;;;;;;5094949;28;20550;-74
2023/10/16 00:15:41;;;;;;;1017.10;917.00;;;3.50;99.90;;;;;;5094882;28;20944;-74
2023/10/16 00:18:13;;;;;;;1022.83;920.43;;;3.30;99.90;;;;;;5097122;28;20450;-73
2023/10/16 00:20:41;;;;;;;1031.10;927.70;;;3.30;99.90;;;;;;5094972;28;20460;-73
2023/10/16 00:23:10;;;;;;;1030.30;927.20;;;3.30;99.90;;;;;;5094687;28;20452;-73
2023/10/16 00:25:39;;;;;;;1033.77;930.10;;;3.20;99.90;;;;;;5094556;28;20484;-73
2023/10/16 00:28:08;;;;;;;1025.57;923.13;;;3.20;99.90;;;;;;5094904;28;20862;-73
2023/10/16 00:30:35;;;;;;;1033.33;929.30;;;3.10;99.90;;;;;;5094682;28;20446;-73
2023/10/16 00:33:04;;;;;;;1032.90;928.33;;;3.10;99.90;;;;;;5094556;28;20456;-74
2023/10/16 00:35:31;;;;;;;1037.60;931.90;;;3.00;99.90;;;;;;5094460;28;20528;-74
2023/10/16 00:37:58;;;;;;;1039.80;936.03;;;3.00;99.90;;;;;;5100994;28;20451;-73
2023/10/16 00:40:32;;;;;;;1042.00;938.30;;;2.90;99.90;;;;;;5114953;28;20451;-74
2023/10/16 00:43:06;;;;;;;1030.67;928.00;;;2.90;99.90;;;;;;5113208;28;20493;-74
2023/10/16 00:45:45;;;;;;;1029.17;927.07;;;2.90;99.90;;;;;;5114690;28;20475;-74
2023/10/16 00:48:13;;;;;;;1034.73;932.60;;;2.90;99.90;;;;;;5114392;28;20792;-73
2023/10/16 00:50:40;;;;;;;1034.00;931.70;;;2.80;99.90;;;;;;5114892;28;20456;-73
2023/10/16 00:53:08;;;;;;;1022.87;920.63;;;2.80;99.90;;;;;;5114793;28;20816;-73
2023/10/16 00:55:35;;;;;;;1025.67;922.07;;;2.90;99.90;;;;;;5114592;28;20795;-73
2023/10/16 00:58:06;;;;;;;1031.27;928.53;;;2.90;99.90;;;;;;5114582;28;20449;-74
2023/10/16 01:00:38;;;;;;;1034.43;932.13;;;2.90;99.90;;;;;;5114478;28;20487;-74
2023/10/16 01:03:06;;;;;;;1029.93;923.47;;;2.80;99.90;;;;;;5114433;28;20452;-74
2023/10/16 01:05:39;;;;;;;1036.97;928.00;;;2.80;99.90;;;;;;5114419;28;20844;-74
2023/10/16 01:08:08;;;;;;;1034.37;925.50;;;2.80;99.90;;;;;;5114155;28;20449;-73
2023/10/16 01:10:40;;;;;;;1032.70;926.03;;;2.70;99.90;;;;;;5114189;28;20455;-73
2023/10/16 01:13:12;;;;;;;1032.60;926.40;;;2.60;99.90;;;;;;5114067;28;20456;-73
2023/10/16 01:15:46;;;;;;;1034.90;928.30;;;2.60;99.90;;;;;;5114285;28;20502;-73
2023/10/16 01:18:15;;;;;;;1040.70;934.60;;;2.60;99.90;;;;;;5112742;28;20444;-73
2023/10/16 01:20:47;;;;;;;1033.97;928.80;;;2.50;99.90;;;;;;5093857;28;20485;-73
2023/10/16 01:23:19;;;;;;;1024.97;920.30;;;2.50;99.90;;;;;;5093624;28;20449;-74
2023/10/16 01:25:51;;;;;;;1029.60;924.77;;;2.50;99.90;;;;;;5092706;28;20839;-74
2023/10/16 01:28:19;;;;;;;1024.00;920.70;;;2.50;99.90;;;;;;5093597;28;20442;-73
2023/10/16 01:30:49;;;;;;;1030.07;925.83;;;2.50;99.90;;;;;;5093599;28;20471;-74
2023/10/16 01:33:16;;;;;;;1033.97;931.60;;;2.70;99.90;;;;;;5101123;28;20448;-74
2023/10/16 01:35:43;;;;;;;1026.27;923.17;;;2.50;99.90;;;;;;5113762;28;20815;-73
2023/10/16 01:38:16;;;;;;;1027.90;922.63;;;2.50;99.90;;;;;;5112340;28;20463;-73
2023/10/16 01:40:47;;;;;;;1033.57;926.47;;;2.40;99.90;;;;;;5113708;28;20452;-74
2023/10/16 01:43:14;;;;;;;1038.23;928.30;;;2.40;99.90;;;;;;5113475;28;20492;-73
2023/10/16 01:45:49;;;;;;;1039.00;927.70;;;2.40;99.90;;;;;;5113369;28;20992;-74
2023/10/16 01:48:18;;;;;;;1043.67;930.00;;;2.60;99.90;;;;;;5106142;28;20453;-73
2023/10/16 01:50:48;;;;;;;1040.37;928.70;;;2.50;99.90;;;;;;5093043;28;20503;-73
2023/10/16 01:53:15;;;;;;;1040.93;926.90;;;2.50;99.90;;;;;;5092981;28;20445;-73
2023/10/16 01:55:51;;;;;;;1039.20;926.77;;;2.50;99.90;;;;;;5093018;28;20445;-73
2023/10/16 01:58:21;;;;;;;1038.83;928.60;;;2.40;99.90;;;;;;5093115;28;20454;-73
2023/10/16 02:00:48;;;;;;;1044.67;935.50;;;2.40;99.90;;;;;;5104613;28;20452;-73
2023/10/16 02:03:17;;;;;;;1039.13;928.27;;;2.30;99.90;;;;;;5111239;28;20463;-73
2023/10/16 02:05:45;;;;;;;1045.33;931.83;;;2.20;99.90;;;;;;5113046;28;20487;-73
2023/10/16 02:08:13;;;;;;;1039.27;925.20;;;2.20;99.90;;;;;;5113021;28;20456;-73
2023/10/16 02:10:40;;;;;;;1042.40;927.87;;;2.30;99.90;;;;;;5113123;28;20456;-73
2023/10/16 02:13:08;;;;;;;1043.30;929.23;;;2.20;99.90;;;;;;5113017;28;20445;-74
2023/10/16 02:15:37;;;;;;;1039.93;926.13;;;2.20;99.90;;;;;;5112928;28;20445;-73
2023/10/16 02:18:06;;;;;;;1045.83;931.50;;;2.20;99.90;;;;;;5112641;28;20444;-73
2023/10/16 02:20:36;;;;;;;1049.10;934.00;;;2.20;99.90;;;;;;5112942;28;20818;-73
2023/10/16 02:23:06;;;;;;;1044.93;930.37;;;2.10;99.90;;;;;;5106800;28;20820;-73
2023/10/16 02:25:34;;;;;;;1040.93;927.87;;;2.10;99.90;;;;;;5092401;28;20473;-73
2023/10/16 02:28:02;;;;;;;1051.23;930.40;;;2.20;99.90;;;;;;5105210;28;20445;-73
2023/10/16 02:30:33;;;;;;;1058.57;929.30;;;2.20;99.90;;;;;;5112803;28;20513;-73
2023/10/16 02:33:12;;;;;;;1056.57;934.20;;;2.20;99.90;;;;;;5112726;28;20449;-73
2023/10/16 02:35:42;;;;;;;1058.17;930.47;;;2.30;99.90;;;;;;5112643;28;20810;-73
2023/10/16 02:38:12;;;;;;;1058.30;935.57;;;2.40;99.90;;;;;;5111465;28;20539;-73
2023/10/16 02:40:39;;;;;;;1068.70;939.27;;;2.40;99.90;;;;;;5112264;28;20936;-73
2023/10/16 02:43:13;;;;;;;1057.83;940.47;;;2.40;99.90;;;;;;5112960;28;20531;-73
2023/10/16 02:45:42;;;;;;;1069.40;942.67;;;2.30;99.90;;;;;;5112415;28;20936;-73
2023/10/16 02:48:10;;;;;;;1098.57;942.60;;;2.30;99.90;;;;;;5112045;28;20949;-74
2023/10/16 02:50:37;;;;;;;1101.57;940.33;;;2.40;99.90;;;;;;5112712;28;20448;-73
2023/10/16 02:53:07;;;;;;;1103.10;937.67;;;2.60;99.90;;;;;;5112559;28;20445;-74
2023/10/16 02:55:34;;;;;;;1095.13;935.53;;;2.40;99.90;;;;;;5112416;28;20949;-73
2023/10/16 02:58:04;;;;;;;1098.33;937.60;;;2.40;99.90;;;;;;5112403;28;20451;-73
2023/10/16 03:00:38;;;;;;;1101.80;945.97;;;2.40;99.90;;;;;;5112681;28;20445;-73
2023/10/16 03:03:07;;;;;;;1091.77;946.20;;;2.40;99.90;;;;;;5112049;28;20456;-73
2023/10/16 03:05:35;;;;;;;1091.43;944.60;;;2.30;99.90;;;;;;5112323;28;20474;-73
2023/10/16 03:08:02;;;;;;;1096.40;947.60;;;2.30;99.90;;;;;;5112545;28;20448;-74
2023/10/16 03:10:30;;;;;;;1105.13;951.87;;;2.40;99.90;;;;;;5106608;28;20455;-74
2023/10/16 03:13:03;;;;;;;1122.37;945.30;;;2.40;99.90;;;;;;5092125;28;20866;-73
2023/10/16 03:15:30;;;;;;;1115.03;950.10;;;2.40;99.90;;;;;;5092358;28;20436;-74
2023/10/16 03:17:57;;;;;;;1109.83;948.30;;;2.40;99.90;;;;;;5096703;28;20488;-73
2023/10/16 03:20:35;;;;;;;1126.33;943.00;;;2.50;99.90;;;;;;5111977;28;20481;-74
2023/10/16 03:23:06;;;;;;;1140.03;948.70;;;2.50;99.90;;;;;;5112332;28;20449;-74
2023/10/16 03:28:13;;;;;;;1122.93;944.50;;;2.60;99.90;;;;;;5112007;28;20472;-74
2023/10/16 03:30:42;;;;;;;1128.53;941.37;;;2.40;99.90;;;;;;5112023;28;20447;-73
2023/10/16 03:33:13;;;;;;;1129.50;940.23;;;2.40;99.90;;;;;;5111924;28;20512;-73
2023/10/16 03:35:45;;;;;;;1128.93;940.67;;;2.40;99.90;;;;;;5112321;28;20501;-73
2023/10/16 03:38:20;;;;;;;1122.30;947.70;;;2.40;99.90;;;;;;5112384;28;20447;-73
2023/10/16 03:40:50;;;;;;;1127.10;943.73;;;2.30;99.90;;;;;;5111870;28;20932;-73
2023/10/16 03:43:17;;;;;;;1135.63;951.80;;;2.20;99.90;;;;;;5112168;28;20972;-73
2023/10/16 03:45:44;;;;;;;1135.87;949.70;;;2.10;99.90;;;;;;5111761;28;20480;-74
2023/10/16 03:48:11;;;;;;;1142.60;953.03;;;2.10;99.90;;;;;;5113387;28;20928;-73
2023/10/16 03:50:39;;;;;;;1133.53;951.50;;;2.00;99.90;;;;;;5115681;28;20818;-73
2023/10/16 03:53:08;;;;;;;1126.50;941.43;;;2.10;99.90;;;;;;5115490;28;20452;-74
2023/10/16 03:55:47;;;;;;;1132.90;935.80;;;2.10;99.90;;;;;;5115649;28;20451;-73
2023/10/16 03:58:14;;;;;;;1133.03;959.90;;;2.10;99.90;;;;;;5115624;28;20823;-74
2023/10/16 04:00:57;;;;;;;1135.40;964.17;;;2.20;99.90;;;;;;5115587;28;20523;-74
2023/10/16 04:03:26;;;;;;;1106.50;946.30;;;2.10;99.90;;;;;;5115414;28;20460;-74
2023/10/16 04:05:54;;;;;;;1107.37;946.97;;;2.10;99.90;;;;;;5113839;28;20479;-74
2023/10/16 04:08:23;;;;;;;1103.70;945.50;;;2.10;99.90;;;;;;5115493;28;20445;-73
2023/10/16 04:10:53;;;;;;;1256.13;999.90;;;2.10;99.90;;;;;;5115293;28;20444;-73
2023/10/16 04:13:25;;;;;;;1115.20;948.13;;;2.00;99.90;;;;;;5115413;28;20476;-73
2023/10/16 04:16:11;;;;;;;1123.60;943.83;;;2.00;99.90;;;;;;5107020;28;20448;-74
2023/10/16 04:18:39;;;;;;;1108.87;942.47;;;2.00;99.90;;;;;;5094908;28;20441;-74
2023/10/16 04:23:54;;;;;;;1116.57;936.77;;;2.00;99.90;;;;;;5095045;28;20441;-73
2023/10/16 04:26:47;;;;;;;1132.83;934.60;;;2.10;99.90;;;;;;5095736;28;20548;-73
2023/10/16 04:29:28;;;;;;;1137.83;943.83;;;2.10;99.90;;;;;;5095735;28;20933;-74
2023/10/16 04:31:58;;;;;;;1135.13;937.73;;;2.00;99.90;;;;;;5094639;28;20445;-73
2023/10/16 04:34:31;;;;;;;1137.50;936.73;;;2.00;99.90;;;;;;5094802;28;20453;-74
2023/10/16 04:45:38;;;;;;;1121.80;941.53;;;2.00;99.90;;;;;;5073732;28;20545;-73
2023/10/16 04:48:23;;;;;;;1130.23;961.10;;;1.90;99.90;;;;;;5084125;28;20810;-74
2023/10/16 04:51:09;;;;;;;1130.30;949.80;;;1.80;99.90;;;;;;5094178;28;20532;-74
2023/10/16 04:53:48;;;;;;;1136.43;953.63;;;1.80;99.90;;;;;;5094476;28;20532;-73
2023/10/16 04:56:29;;;;;;;1118.40;944.50;;;1.80;99.90;;;;;;5094343;28;20878;-74
2023/10/16 04:59:00;;;;;;;1117.70;942.73;;;1.90;99.90;;;;;;5093980;28;20445;-74
2023/10/16 05:04:49;;;;;;;1109.53;930.13;;;1.80;99.90;;;;;;5094000;28;20522;-74
2023/10/16 05:07:17;;;;;;;1104.93;921.43;;;1.80;99.90;;;;;;5094316;28;20473;-74
2023/10/16 05:18:11;;;;;;;1107.93;930.63;;;1.70;99.90;;;;;;5093911;28;20536;-74
2023/10/16 06:15:37;;;;;;;1086.00;919.57;;;1.90;99.90;;;;;;5092678;28;20483;-74
2023/10/16 06:18:06;;;;;;;1088.30;910.23;;;1.90;99.90;;;;;;5092615;28;20926;-74
2023/10/16 06:20:37;;;;;;;1094.27;912.27;;;1.90;99.90;;;;;;5092836;28;20453;-74
2023/10/16 06:23:04;;;;;;;1093.47;919.27;;;2.00;99.90;;;;;;5092628;28;20449;-73
2023/10/16 06:25:35;;;;;;;1098.63;918.10;;;2.00;99.90;;;;;;5092437;28;20535;-74
2023/10/16 06:28:08;;;;;;;1097.37;906.03;;;2.00;99.90;;;;;;5092004;28;20445;-74
2023/10/16 06:30:37;;;;;;;1102.27;908.20;;;2.00;99.90;;;;;;5092803;28;20453;-74
2023/10/16 06:33:05;;;;;;;1091.00;910.90;;;2.10;99.90;;;;;;5092271;28;20450;-74
2023/10/16 06:35:34;;;;;;;1086.57;904.30;;;2.20;99.90;;;;;;5092448;28;20452;-74
2023/10/16 06:38:01;;;;;;;1084.00;912.17;;;2.20;99.90;;;;;;5072379;28;20446;-74
2023/10/16 06:40:29;;;;;;;1082.73;921.40;;;2.30;99.90;;;;;;5072169;28;20447;-74
2023/10/16 06:43:10;;;;;;;1076.90;901.87;;;2.30;99.90;;;;;;5072408;28;20478;-74
2023/10/16 06:45:54;;;;;;;1089.33;909.20;;;2.40;99.90;;;;;;5082814;28;20495;-74
2023/10/16 06:48:22;;;;;;;1085.60;905.10;;;2.50;99.90;;;;;;5095533;28;20464;-74
2023/10/16 06:53:25;;;;;;;1075.53;895.43;;;2.70;99.90;;;;;;5192716;22;20585;-76
2023/10/16 06:55:52;;;;;;;1072.67;904.20;;;2.80;99.90;;;;;;5013983;28;20472;-76
2023/10/16 06:58:21;;;;;;;1075.70;901.20;;;2.90;99.90;;;;;;5013608;28;20945;-76
2023/10/16 07:00:49;;;;;;;1067.63;905.47;;;3.00;99.90;;;;;;5013361;28;20543;-77
2023/10/16 07:03:17;;;;;;;1065.07;886.87;;;3.10;99.90;;;;;;5013231;28;20457;-73
2023/10/16 07:05:43;;;;;;;1081.27;893.60;;;3.20;99.90;;;;;;5013802;28;20825;-73
2023/10/16 07:08:11;;;;;;;1078.80;893.20;;;3.30;99.90;;;;;;5013994;28;20449;-73
2023/10/16 07:10:48;;;;;;;1080.20;889.33;;;3.40;99.90;;;;;;5013428;28;20458;-73
2023/10/16 07:13:16;;;;;;;1080.57;884.77;;;3.60;99.90;;;;;;5012503;28;20459;-73
2023/10/16 07:15:46;;;;;;;1081.80;894.27;;;3.70;99.90;;;;;;5012048;28;20449;-73
2023/10/16 07:18:14;;;;;;;1074.23;887.90;;;3.80;99.90;;;;;;5012151;28;20460;-73
2023/10/16 07:20:59;;;;;;;1083.10;889.33;;;4.00;99.90;;;;;;5012224;28;20471;-73
2023/10/16 07:23:29;;;;;;;1064.60;880.57;;;4.10;99.90;;;;;;5013791;28;20456;-73
2023/10/16 07:25:58;;;;;;;1065.67;877.50;;;4.20;99.90;;;;;;5014866;28;20484;-74
2023/10/16 07:28:26;;;;;;;1060.23;893.60;;;4.40;99.90;;;;;;5015534;28;20459;-74
2023/10/16 07:30:56;;;;;;;1074.17;881.33;;;4.50;99.90;;;;;;5015535;28;20471;-74
2023/10/16 07:33:24;;;;;;;1067.63;884.00;;;4.60;99.90;;;;;;5015393;28;20460;-74
2023/10/16 07:35:52;;;;;;;1076.50;888.37;;;4.70;99.90;;;;;;5015370;28;20449;-74
2023/10/16 07:38:20;;;;;;;1059.07;891.93;;;4.90;99.90;;;;;;5015370;28;20944;-74
2023/10/16 07:40:51;;;;;;;1071.80;900.13;;;5.00;99.90;;;;;;5015206;28;20445;-74
2023/10/16 07:43:26;;;;;;;1062.43;884.87;;;5.10;99.90;;;;;;5015510;28;20453;-74
2023/10/16 07:46:15;;;;;;;1051.23;910.37;;;5.20;99.90;;;;;;5015475;28;20453;-74
2023/10/16 07:48:44;;;;;;;1060.80;892.77;;;5.30;99.90;;;;;;5015327;28;20448;-74
2023/10/16 07:51:11;;;;;;;1033.93;894.50;;;5.40;99.90;;;;;;5014995;28;20445;-74
2023/10/16 07:53:39;;;;;;;1034.27;888.23;;;5.50;99.90;;;;;;5014910;28;20452;-74
2023/10/16 07:56:19;;;;;;;1028.47;887.57;;;5.50;99.90;;;;;;5015370;28;20790;-74
2023/10/16 07:58:49;;;;;;;1017.07;878.33;;;5.50;99.90;;;;;;5015143;28;20810;-74
2023/10/16 08:01:32;;;;;;;1020.03;880.27;;;5.60;99.90;;;;;;5015266;28;20947;-74
2023/10/16 08:03:59;;;;;;;1020.07;878.07;;;5.70;99.90;;;;;;5015365;28;20452;-74
2023/10/16 08:06:28;;;;;;;999.67;883.33;;;5.90;99.90;;;;;;5015466;28;20485;-78
2023/10/16 08:11:42;;;;;;;979.22;877.78;;;6.00;99.90;;;;;;5012202;28;20505;-75
2023/10/16 08:14:11;;;;;;;979.57;880.73;;;6.00;99.90;;;;;;5014866;28;20199;-75
2023/10/16 08:16:39;;;;;;;976.53;878.10;;;6.10;99.90;;;;;;5015454;28;20829;-75
2023/10/16 08:19:14;;;;;;;979.50;879.70;;;6.10;99.90;;;;;;5014936;28;20453;-75
2023/10/16 08:21:43;;;;;;;982.27;881.87;;;6.20;99.90;;;;;;5015444;28;20457;-75
2023/10/16 08:24:13;;;;;;;975.47;877.37;;;6.30;99.90;;;;;;5015299;28;20449;-75
2023/10/16 08:26:43;;;;;;;977.70;878.37;;;6.40;99.90;;;;;;5015284;28;20477;-75
2023/10/16 08:29:17;;;;;;;971.27;873.00;;;6.50;99.90;;;;;;5014933;28;20456;-75
2023/10/16 08:31:45;;;;;;;966.90;872.80;;;6.60;99.90;;;;;;5015152;28;20458;-75
2023/10/16 08:34:16;;;;;;;968.30;875.77;;;6.70;99.90;;;;;;5015093;28;20453;-75
2023/10/16 08:36:43;;;;;;;971.47;878.40;;;6.80;99.90;;;;;;5015052;28;20861;-75
2023/10/16 08:39:10;;;;;;;970.63;878.57;;;7.00;99.90;;;;;;5015085;28;20454;-75
2023/10/16 08:41:45;;;;;;;964.10;873.20;;;7.10;99.90;;;;;;5014816;28;20537;-75
2023/10/16 08:44:17;;;;;;;967.17;878.67;;;7.20;99.90;;;;;;5014758;28;20461;-75
2023/10/16 08:47:02;;;;;;;965.33;880.10;;;7.30;99.90;;;;;;5014827;28;20855;-75
2023/10/16 08:49:30;;;;;;;950.80;868.10;;;7.40;99.90;;;;;;5014618;28;20862;-75
2023/10/16 08:52:04;;;;;;;947.83;870.33;;;7.50;99.90;;;;;;5014777;28;20460;-75
2023/10/16 08:54:53;;;;;;;919.50;853.83;;;7.70;99.90;;;;;;5014389;28;20449;-75
2023/10/16 08:57:22;;;;;;;802.07;754.73;;;7.70;99.90;;;;;;5014517;28;20474;-75
2023/10/16 08:59:50;;;;;;;811.90;763.30;;;7.70;99.90;;;;;;5014295;28;20450;-75
2023/10/16 09:02:19;;;;;;;745.67;704.60;;;8.10;99.90;;;;;;5014552;28;20464;-75
2023/10/16 09:04:48;;;;;;;679.67;645.10;;;8.40;99.90;;;;;;5014241;28;20540;-75
2023/10/16 09:07:17;;;;;;;300.10;288.70;;;8.80;99.90;;;;;;5014173;28;20484;-75
2023/10/16 09:09:48;;;;;;;215.37;206.47;;;9.10;99.90;;;;;;5014615;28;20946;-75
2023/10/16 09:12:24;;;;;;;48.97;45.00;;;9.50;99.90;;;;;;5014302;28;20439;-74
2023/10/16 09:14:53;;;;;;;15.07;9.57;;;9.90;99.90;;;;;;5013978;28;20459;-74
2023/10/16 09:17:20;;;;;;;16.03;9.30;;;10.40;99.90;;;;;;5015448;28;20452;-74
2023/10/16 09:19:48;;;;;;;14.07;7.97;;;10.60;99.90;;;;;;5015405;28;20537;-76
2023/10/16 09:22:17;;;;;;;13.13;8.00;;;10.90;99.90;;;;;;5014766;28;20466;-74
2023/10/16 09:24:45;;;;;;;14.13;9.13;;;11.00;99.90;;;;;;5014885;28;20455;-74
2023/10/16 09:27:17;;;;;;;14.30;8.30;;;10.80;98.00;;;;;;5014769;28;20477;-74
2023/10/16 09:29:53;;;;;;;14.43;8.07;;;11.10;98.10;;;;;;5014753;28;21001;-74
2023/10/16 09:32:26;;;;;;;15.63;9.57;;;11.40;98.80;;;;;;5014753;28;20451;-74
2023/10/16 09:34:53;;;;;;;14.57;9.70;;;11.40;95.10;;;;;;5014576;28;20459;-74
2023/10/16 09:37:24;;;;;;;16.23;10.50;;;11.70;98.30;;;;;;5014823;28;20445;-73
2023/10/16 09:39:53;;;;;;;14.13;8.83;;;11.90;94.80;;;;;;5014085;28;20453;-73
2023/10/16 09:42:25;;;;;;;18.67;10.10;;;12.30;96.60;;;;;;5011920;28;20552;-72
2023/10/16 09:44:59;;;;;;;18.60;10.83;;;12.40;92.00;;;;;;5013739;28;20440;-72
2023/10/16 09:47:30;;;;;;;15.90;11.30;;;12.50;90.10;;;;;;5013666;28;20487;-72
2023/10/16 09:49:59;;;;;;;18.50;9.90;;;12.90;87.40;;;;;;5013988;28;20537;-72
2023/10/16 09:52:25;;;;;;;18.33;11.10;;;13.10;79.80;;;;;;5013805;28;20465;-72
2023/10/16 09:54:53;;;;;;;17.93;11.60;;;13.00;79.60;;;;;;5013918;28;20535;-72
2023/10/16 09:57:23;;;;;;;20.90;12.20;;;12.90;76.30;;;;;;5012965;28;20456;-72
2023/10/16 10:00:00;;;;;;;19.50;11.87;;;13.20;80.70;;;;;;5013298;28;20460;-72
2023/10/16 10:02:35;;;;;;;21.90;12.53;;;13.40;80.10;;;;;;5013334;28;20456;-72
2023/10/16 10:05:09;;;;;;;18.50;12.03;;;13.80;80.40;;;;;;5014265;28;20518;-72
2023/10/16 10:07:47;;;;;;;19.63;12.47;;;14.10;72.70;;;;;;5013853;28;20489;-72
2023/10/16 10:13:08;;;;;;;22.33;13.80;;;14.60;65.20;;;;;;5012370;28;20444;-72
2023/10/16 10:15:39;;;;;;;17.47;12.00;;;14.80;65.30;;;;;;5013049;28;20457;-72
2023/10/16 10:20:58;;;;;;;18.77;12.43;;;15.30;57.50;;;;;;5012151;28;20445;-72
2023/10/16 10:23:25;;;;;;;25.40;13.53;;;14.90;48.50;;;;;;5012954;28;20487;-72
2023/10/16 10:25:54;;;;;;;18.90;13.67;;;15.20;48.80;;;;;;5012957;28;20459;-72
2023/10/16 10:28:25;;;;;;;20.80;13.87;;;15.60;49.10;;;;;;5013265;28;20543;-72
2023/10/16 10:30:55;;;;;;;21.40;12.60;;;15.80;45.50;;;;;;5013293;28;20795;-72
2023/10/16 10:33:51;;;;;;;21.00;13.00;;;15.90;40.60;;;;;;5012846;28;20448;-72
2023/10/16 10:36:33;;;;;;;20.00;14.17;;;15.80;31.40;;;;;;5013326;28;20908;-72
2023/10/16 10:39:46;;;;;;;19.70;12.83;;;16.40;34.10;;;;;;5014386;28;20448;-72
2023/10/16 10:42:24;;;;;;;18.60;12.07;;;16.80;27.80;;;;;;5013005;28;20857;-71
2023/10/16 10:45:07;;;;;;;20.90;12.47;;;15.70;31.30;;;;;;5012493;28;20459;-71
2023/10/16 10:47:42;;;;;;;21.87;12.57;;;15.60;31.20;;;;;;5012494;28;20480;-71
2023/10/16 10:50:25;;;;;;;20.93;13.43;;;15.70;31.30;;;;;;5011750;28;20485;-71
2023/10/16 10:52:51;;;;;;;21.63;12.67;;;16.30;25.00;;;;;;5012675;28;20467;-68
2023/10/16 10:55:22;;;;;;;21.80;13.33;;;16.20;31.30;;;;;;5012768;28;20511;-68
2023/10/16 10:57:58;;;;;;;16.13;10.93;;;16.80;31.90;;;;;;5013985;28;20797;-68
2023/10/16 11:03:08;;;;;;;24.53;13.03;;;15.80;24.00;;;;;;5016088;28;20928;-68
2023/10/16 11:05:41;;;;;;;17.60;10.30;;;15.30;25.70;;;;;;5016593;28;20543;-68
2023/10/16 11:08:25;;;;;;;15.27;9.87;;;15.60;24.90;;;;;;5016644;28;20489;-68
2023/10/16 11:10:52;;;;;;;17.90;9.53;;;14.70;30.30;;;;;;5016462;28;20453;-68
2023/10/16 11:13:21;;;;;;;16.00;9.43;;;15.40;27.10;;;;;;5016527;28;20868;-68
2023/10/16 11:15:52;;;;;;;19.13;10.17;;;16.00;24.20;;;;;;5016777;28;20448;-68
2023/10/16 11:18:20;;;;;;;21.77;10.20;;;16.30;24.40;;;;;;5016690;28;20943;-68
2023/10/16 11:20:53;;;;;;;15.50;9.60;;;16.70;23.80;;;;;;5016388;28;20452;-68
2023/10/16 11:23:22;;;;;;;14.20;9.10;;;16.80;20.40;;;;;;5016611;28;20920;-68
2023/10/16 11:25:51;;;;;;;20.33;9.50;;;16.70;24.50;;;;;;5016434;28;20958;-68
2023/10/16 11:28:21;;;;;;;13.53;8.47;;;16.90;17.50;;;;;;5016046;28;20483;-68
2023/10/16 11:30:53;;;;;;;18.30;9.87;;;16.60;17.30;;;;;;5016437;28;20448;-67
2023/10/16 11:33:34;;;;;;;15.60;9.53;;;16.70;24.60;;;;;;5016132;28;20453;-68
2023/10/16 11:36:06;;;;;;;12.73;8.20;;;17.10;17.70;;;;;;5016098;28;20510;-67
2023/10/16 11:38:34;;;;;;;15.77;8.00;;;17.30;17.80;;;;;;5016123;28;20867;-68
2023/10/16 11:41:09;;;;;;;13.30;8.77;;;17.50;17.70;;;;;;5015984;28;20855;-68
2023/10/16 11:43:38;;;;;;;17.40;8.93;;;18.10;18.30;;;;;;5015977;28;20487;-67
2023/10/16 11:46:27;;;;;;;17.47;9.43;;;18.20;13.60;;;;;;5016000;28;20670;-67
2023/10/16 11:48:56;;;;;;;15.03;8.83;;;17.60;13.10;;;;;;5015493;28;20469;-68
2023/10/16 11:51:26;;;;;;;18.30;8.40;;;17.80;18.10;;;;;;5015727;28;20490;-67
2023/10/16 11:53:58;;;;;;;17.43;9.27;;;18.20;10.90;;;;;;5015502;28;20464;-67
2023/10/16 11:56:25;;;;;;;14.23;8.80;;;17.40;14.10;;;;;;5015966;28;20433;-67
2023/10/16 11:58:54;;;;;;;13.30;7.73;;;16.80;13.70;;;;;;5015574;28;20496;-67
2023/10/16 12:01:21;;;;;;;15.70;8.57;;;17.10;14.20;;;;;;5015633;28;20448;-67
2023/10/16 12:03:48;;;;;;;20.70;10.30;;;16.90;17.50;;;;;;5015556;28;20452;-69
2023/10/16 12:06:17;;;;;;;11.63;8.23;;;16.30;17.00;;;;;;5015879;28;20455;-69
2023/10/16 12:08:45;;;;;;;12.37;7.77;;;16.40;17.10;;;;;;5015503;28;20480;-67
2023/10/16 12:11:14;;;;;;;13.00;7.90;;;16.80;17.80;;;;;;5015931;28;20452;-67
2023/10/16 12:13:41;;;;;;;13.90;8.13;;;17.50;17.90;;;;;;5015460;28;20506;-68
2023/10/16 12:16:08;;;;;;;13.07;8.20;;;17.70;13.80;;;;;;5015626;28;20484;-67
2023/10/16 12:18:35;;;;;;;14.70;7.37;;;17.70;10.60;;;;;;5015494;28;21004;-67
2023/10/16 12:21:05;;;;;;;12.77;8.97;;;17.40;11.50;;;;;;5016118;28;20449;-67
2023/10/16 12:23:38;;;;;;;12.07;7.83;;;16.70;15.20;;;;;;5015535;28;20575;-67
2023/10/16 12:26:07;;;;;;;12.33;7.50;;;17.10;14.70;;;;;;5015587;28;20536;-67
2023/10/16 12:28:34;;;;;;;15.43;7.70;;;17.10;15.00;;;;;;5015297;28;20480;-67
2023/10/16 12:31:02;;;;;;;13.00;6.40;;;17.20;13.90;;;;;;5015286;28;20479;-67
2023/10/16 12:33:31;;;;;;;11.87;6.40;;;17.20;10.60;;;;;;5014584;28;20489;-67
2023/10/16 12:36:01;;;;;;;12.17;6.60;;;17.20;10.30;;;;;;5014967;28;20460;-67
2023/10/16 12:38:29;;;;;;;12.73;6.53;;;16.80;9.90;;;;;;5012865;28;20536;-67
2023/10/16 12:40:58;;;;;;;13.13;6.80;;;16.80;9.90;;;;;;4994672;28;20454;-67
2023/10/16 12:43:28;;;;;;;12.50;6.13;;;16.20;14.10;;;;;;4994804;28;20504;-67
2023/10/16 12:45:57;;;;;;;12.27;6.17;;;16.10;16.90;;;;;;4994923;28;20544;-68
2023/10/16 12:48:28;;;;;;;12.10;6.47;;;15.80;16.70;;;;;;4995143;28;20478;-67
2023/10/16 12:50:59;;;;;;;13.60;7.17;;;15.90;16.70;;;;;;4994897;28;20454;-68
2023/10/16 12:53:27;;;;;;;14.13;7.63;;;15.80;16.70;;;;;;4994589;28;20465;-67
2023/10/16 12:55:55;;;;;;;14.83;6.93;;;15.80;17.40;;;;;;4994618;28;20454;-68
2023/10/16 12:58:22;;;;;;;12.03;6.80;;;16.30;17.00;;;;;;4994673;28;20544;-67
2023/10/16 13:00:51;;;;;;;13.47;7.20;;;16.60;17.30;;;;;;4994371;28;20454;-68
2023/10/16 13:03:20;;;;;;;13.37;7.13;;;16.10;16.90;;;;;;4994397;28;20442;-68
2023/10/16 13:05:48;;;;;;;13.33;7.80;;;16.00;16.80;;;;;;4994195;28;20454;-68
2023/10/16 13:08:17;;;;;;;14.27;7.37;;;15.30;16.30;;;;;;4994139;28;21047;-68
2023/10/16 13:10:48;;;;;;;13.10;6.80;;;15.30;16.30;;;;;;4994297;28;20489;-68
2023/10/16 13:13:19;;;;;;;15.03;7.73;;;15.20;16.30;;;;;;4994092;28;20454;-68
2023/10/16 13:15:54;;;;;;;16.00;7.33;;;15.50;19.40;;;;;;4993944;28;20453;-68
2023/10/16 13:18:28;;;;;;;13.73;6.50;;;15.40;21.30;;;;;;4994022;28;20509;-67
2023/10/16 13:21:04;;;;;;;17.47;7.17;;;15.00;19.80;;;;;;4994453;28;20488;-68
2023/10/16 13:23:34;;;;;;;13.90;7.30;;;14.50;23.10;;;;;;4994286;28;20452;-68
2023/10/16 13:26:02;;;;;;;18.25;9.00;;;14.50;23.10;;;;;;4993445;28;20510;-68
2023/10/16 13:28:30;;;;;;;15.27;7.57;;;14.50;23.10;;;;;;4993834;28;20463;-68
2023/10/16 13:30:59;;;;;;;16.00;9.07;;;14.60;23.20;;;;;;4993951;28;20887;-67
2023/10/16 13:33:27;;;;;;;13.87;7.83;;;14.50;23.20;;;;;;4994481;28;20245;-68
2023/10/16 13:35:54;;;;;;;20.50;8.60;;;14.50;25.10;;;;;;4994014;28;20934;-67
2023/10/16 13:38:22;;;;;;;11.87;7.07;;;14.70;23.20;;;;;;4994223;28;20541;-68
2023/10/16 13:40:49;;;;;;;12.60;6.57;;;14.50;23.10;;;;;;4994639;28;20457;-67
2023/10/16 13:43:18;;;;;;;11.37;6.93;;;14.50;23.70;;;;;;4993869;28;20495;-67
2023/10/16 13:45:45;;;;;;;14.33;7.23;;;14.40;23.20;;;;;;4993949;28;20462;-67
2023/10/16 13:48:16;;;;;;;13.40;7.70;;;14.30;26.60;;;;;;4994137;28;20561;-67
2023/10/16 13:50:47;;;;;;;15.40;7.57;;;14.20;28.20;;;;;;4993618;28;20460;-67
2023/10/16 13:53:15;;;;;;;14.33;8.00;;;14.40;28.60;;;;;;4993901;28;20245;-67
2023/10/16 13:55:42;;;;;;;11.60;7.00;;;14.40;27.50;;;;;;4993860;28;20461;-67
2023/10/16 13:58:09;;;;;;;10.13;5.53;;;14.40;27.70;;;;;;4993732;28;20461;-67
2023/10/16 14:00:37;;;;;;;12.90;6.40;;;14.20;29.30;;;;;;4994261;28;20481;-67
2023/10/16 14:03:07;;;;;;;12.60;6.30;;;14.30;27.60;;;;;;4993803;28;20453;-66
2023/10/16 14:05:41;;;;;;;15.97;7.23;;;14.30;30.00;;;;;;4994717;28;20454;-67
2023/10/16 14:08:10;;;;;;;12.87;6.47;;;14.30;30.00;;;;;;4994929;28;20548;-67
2023/10/16 14:10:45;;;;;;;14.40;7.38;;;14.30;30.00;;;;;;4994158;28;20461;-67